Time;durP1;ratioP1;P1;durP2;ratioP2;P2;SDS_P1;SDS_P2;PMS_P1;PMS_P2;Temp;Humidity;BMP_temperature;BMP_pressure;BME280_temperature;BME280_humidity;BME280_pressure;Samples;Min_cycle;Max_cycle;Signal;HPM_P1;HPM_P2
2024/01/14 00:01:34;;;;;;;1.33;1.25;;;;;;;-0.88;56.36;99652.88;4392387;32;32103;-87
2024/01/14 00:04:02;;;;;;;2.62;1.50;;;;;;;-0.93;56.73;99657.19;4398128;32;33680;-87
2024/01/14 00:06:30;;;;;;;0.28;0.28;;;;;;;-0.95;56.61;99662.38;4418244;32;34493;-87
2024/01/14 00:08:58;;;;;;;1.55;1.52;;;;;;;-0.88;56.65;99648.53;4419815;32;33840;-88
2024/01/14 00:11:26;;;;;;;4.03;3.33;;;;;;;-0.94;57.39;99648.56;4390376;32;33256;-88
2024/01/14 00:13:54;;;;;;;1.77;1.67;;;;;;;-0.87;57.01;99644.22;4419588;32;33305;-88
2024/01/14 00:16:21;;;;;;;1.87;1.77;;;;;;;-0.53;55.77;99642.47;4394010;32;34028;-88
2024/01/14 00:18:50;;;;;;;0.60;0.60;;;;;;;-0.68;55.58;99640.75;4395047;32;33007;-88
2024/01/14 00:21:17;;;;;;;0.45;0.45;;;;;;;-0.94;56.67;99639.91;4419436;32;32192;-85
2024/01/14 00:23:49;;;;;;;6.72;5.03;;;;;;;-1.02;57.42;99645.09;4406910;32;33486;-85
2024/01/14 00:26:17;;;;;;;3.15;2.40;;;;;;;-0.90;56.91;99639.91;4404591;32;33664;-85
2024/01/14 00:28:45;;;;;;;3.40;2.62;;;;;;;-1.09;57.40;99643.37;4404778;32;34995;-85
2024/01/14 00:31:13;;;;;;;2.30;2.20;;;;;;;-1.15;58.39;99638.16;4388290;32;33556;-85
2024/01/14 00:33:41;;;;;;;2.10;2.00;;;;;;;-1.08;58.11;99635.59;4407191;32;33540;-85
2024/01/14 00:36:10;;;;;;;6.62;2.78;;;;;;;-1.00;57.93;99626.94;4407166;32;33529;-85
2024/01/14 00:38:38;;;;;;;2.15;2.05;;;;;;;-1.13;58.66;99626.09;4406920;32;33820;-85
2024/01/14 00:41:06;;;;;;;3.20;1.77;;;;;;;-0.79;57.60;99633.00;4398280;32;34361;-85
2024/01/14 00:43:33;;;;;;;4.53;4.28;;;;;;;-1.01;57.14;99620.91;4388008;32;34481;-85
2024/01/14 00:46:02;;;;;;;2.25;2.15;;;;;;;-1.05;57.32;99624.34;4405991;32;33359;-85
2024/01/14 00:48:30;;;;;;;2.95;2.37;;;;;;;-1.22;58.66;99626.09;4400968;32;33902;-84
2024/01/14 00:50:58;;;;;;;0.80;0.80;;;;;;;-0.95;57.91;99615.72;4381872;32;32056;-85
2024/01/14 00:53:26;;;;;;;1.23;1.12;;;;;;;-0.98;57.64;99615.72;4393775;32;34273;-85
2024/01/14 00:55:54;;;;;;;2.60;1.65;;;;;;;-0.97;57.51;99607.06;4385512;32;32775;-85
2024/01/14 00:58:22;;;;;;;3.75;2.53;;;;;;;-0.96;57.54;99608.78;4398294;32;34131;-85
2024/01/14 01:00:50;;;;;;;1.62;1.52;;;;;;;-0.89;57.44;99605.34;4398521;32;33950;-85
2024/01/14 01:03:18;;;;;;;1.65;1.55;;;;;;;-0.73;56.46;99606.19;4399809;32;32362;-85
2024/01/14 01:05:46;;;;;;;1.75;1.17;;;;;;;-0.85;56.07;99608.81;4397372;32;34355;-86
2024/01/14 01:08:14;;;;;;;0.50;0.50;;;;;;;-1.06;57.38;99613.13;4372235;32;33569;-86
2024/01/14 01:10:42;;;;;;;0.82;0.30;;;;;;;-1.43;58.05;99601.84;4386988;32;34120;-85
2024/01/14 01:13:10;;;;;;;0.30;0.30;;;;;;;-1.16;57.55;99597.56;4399032;32;34458;-86
2024/01/14 01:15:37;;;;;;;4.28;1.73;;;;;;;-1.07;57.50;99606.22;4390217;32;33033;-86
2024/01/14 01:18:06;;;;;;;0.85;0.85;;;;;;;-0.88;56.93;99606.22;4382828;32;32956;-86
2024/01/14 01:20:34;;;;;;;1.83;1.73;;;;;;;-0.95;56.88;99587.22;4397619;32;33317;-85
2024/01/14 01:23:01;;;;;;;2.87;2.10;;;;;;;-0.98;57.44;99584.63;4385034;32;33975;-85
2024/01/14 01:25:29;;;;;;;2.35;2.15;;;;;;;-1.10;57.89;99584.63;4395095;32;32004;-85
2024/01/14 01:27:57;;;;;;;2.37;2.22;;;;;;;-1.00;57.80;99588.94;4381681;32;32803;-85
2024/01/14 01:30:24;;;;;;;1.02;1.02;;;;;;;-0.97;58.08;99575.97;4383917;32;32227;-85
2024/01/14 01:32:53;;;;;;;2.72;1.45;;;;;;;-1.00;58.08;99575.09;4389091;32;33869;-86
2024/01/14 01:35:21;;;;;;;0.55;0.55;;;;;;;-0.97;57.53;99573.38;4396622;32;33905;-86
2024/01/14 01:37:48;;;;;;;2.25;1.70;;;;;;;-1.00;58.41;99564.75;4400424;32;34093;-87
2024/01/14 01:40:17;;;;;;;2.95;2.75;;;;;;;-0.65;56.84;99551.75;4392447;32;33849;-87
2024/01/14 01:42:49;;;;;;;2.15;2.05;;;;;;;-1.07;57.60;99549.22;4391313;32;33038;-86
2024/01/14 01:45:17;;;;;;;0.22;0.22;;;;;;;-1.03;58.58;99552.66;4399882;32;32596;-86
2024/01/14 01:47:45;;;;;;;0.00;0.00;;;;;;;-0.90;58.35;99551.78;4394528;32;33306;-86
2024/01/14 01:50:12;;;;;;;3.95;2.45;;;;;;;-0.42;56.28;99543.91;4395358;32;34276;-86
2024/01/14 01:52:40;;;;;;;0.45;0.45;;;;;;;-0.90;57.09;99551.78;4391926;32;33689;-86
2024/01/14 01:55:10;;;;;;;0.37;0.37;;;;;;;-0.94;57.89;99539.69;4385327;32;34001;-86
2024/01/14 01:57:38;;;;;;;2.72;2.55;;;;;;;-0.90;57.74;99536.25;4381194;32;33187;-86
2024/01/14 02:00:10;;;;;;;1.08;1.08;;;;;;;-1.04;58.24;99538.00;4396798;32;34269;-86
2024/01/14 02:02:40;;;;;;;0.25;0.22;;;;;;;-0.82;58.17;99538.81;4396859;32;34329;-85
2024/01/14 02:05:09;;;;;;;2.15;1.70;;;;;;;-0.78;58.30;99536.19;4398889;32;35037;-86
2024/01/14 02:07:39;;;;;;;0.88;0.73;;;;;;;-0.73;58.00;99525.81;4395350;32;34827;-85
2024/01/14 02:10:06;;;;;;;0.17;0.17;;;;;;;-0.91;58.46;99534.50;4399371;32;33946;-86
2024/01/14 02:12:35;;;;;;;1.52;1.33;;;;;;;-0.79;57.86;99531.88;4401271;32;34339;-86
2024/01/14 02:15:03;;;;;;;0.90;0.90;;;;;;;-0.72;57.87;99539.66;4398457;32;32644;-86
2024/01/14 02:17:31;;;;;;;1.20;1.10;;;;;;;-0.75;58.38;99534.50;4395293;32;33494;-86
2024/01/14 02:19:59;;;;;;;0.05;0.05;;;;;;;-0.70;58.38;99527.56;4394898;32;33326;-86
2024/01/14 02:22:30;;;;;;;1.45;1.45;;;;;;;-0.53;57.88;99526.63;4399906;32;34437;-86
2024/01/14 02:24:57;;;;;;;1.20;1.20;;;;;;;-0.52;57.90;99532.69;4397661;32;33387;-86
2024/01/14 02:27:25;;;;;;;4.07;2.12;;;;;;;-0.52;57.64;99524.91;4402586;32;33315;-88
2024/01/14 02:29:54;;;;;;;1.35;1.30;;;;;;;-0.58;57.90;99517.12;4401595;32;33577;-88
2024/01/14 02:32:22;;;;;;;0.60;0.60;;;;;;;-0.51;57.86;99516.25;4398638;32;33789;-85
2024/01/14 02:34:51;;;;;;;0.95;0.95;;;;;;;-0.56;57.72;99510.22;4396078;32;35175;-85
2024/01/14 02:37:19;;;;;;;2.80;2.60;;;;;;;-0.57;58.08;99504.19;4386218;32;33439;-85
2024/01/14 02:39:46;;;;;;;1.67;1.67;;;;;;;-0.49;57.82;99511.91;4396179;32;33266;-85
2024/01/14 02:42:14;;;;;;;1.25;1.25;;;;;;;-0.61;58.24;99504.19;4394684;32;33462;-85
2024/01/14 02:44:42;;;;;;;3.83;2.55;;;;;;;-0.50;57.62;99505.00;4398167;32;32899;-86
2024/01/14 02:47:10;;;;;;;2.78;2.30;;;;;;;-0.43;57.63;99509.28;4397153;32;32878;-86
2024/01/14 02:49:38;;;;;;;0.37;0.37;;;;;;;-0.24;57.49;99497.09;4398350;32;33419;-86
2024/01/14 02:52:07;;;;;;;2.67;2.47;;;;;;;-0.35;57.75;99497.16;4396874;32;33939;-86
2024/01/14 02:54:34;;;;;;;0.82;0.82;;;;;;;-0.39;57.36;99513.59;4380401;32;32820;-86
2024/01/14 02:57:02;;;;;;;0.15;0.15;;;;;;;-0.51;58.33;99526.63;4381569;32;33353;-86
2024/01/14 02:59:32;;;;;;;0.90;0.90;;;;;;;-0.35;58.11;99504.06;4400909;32;32498;-86
2024/01/14 03:02:01;;;;;;;0.65;0.65;;;;;;;-0.45;57.80;99495.47;4391290;32;34287;-86
2024/01/14 03:04:29;;;;;;;0.40;0.40;;;;;;;-0.53;57.84;99494.62;4395411;32;34008;-86
2024/01/14 03:06:57;;;;;;;0.40;0.40;;;;;;;-0.34;58.05;99496.28;4400711;32;34156;-86
2024/01/14 03:09:25;;;;;;;0.50;0.50;;;;;;;-0.43;58.25;99485.94;4395486;32;32751;-86
2024/01/14 03:11:53;;;;;;;1.48;1.02;;;;;;;-0.32;57.67;99493.69;4398148;32;34250;-85
2024/01/14 03:14:21;;;;;;;2.17;1.98;;;;;;;-0.38;58.21;99483.31;4398415;32;33396;-86
2024/01/14 03:16:49;;;;;;;0.95;0.95;;;;;;;-0.49;58.36;99470.41;4393716;32;34793;-85
2024/01/14 03:19:17;;;;;;;1.12;1.12;;;;;;;-0.49;58.22;99465.22;4394071;32;33620;-85
2024/01/14 03:21:45;;;;;;;1.05;1.05;;;;;;;-0.37;58.29;99462.59;4400955;32;34264;-85
2024/01/14 03:24:12;;;;;;;0.32;0.32;;;;;;;-0.34;58.17;99459.09;4388466;32;33160;-87
2024/01/14 03:26:40;;;;;;;0.80;0.80;;;;;;;-0.28;57.89;99457.34;4397498;32;33625;-86
2024/01/14 03:29:08;;;;;;;1.10;1.10;;;;;;;-0.26;57.50;99455.59;4385596;32;32927;-86
2024/01/14 03:31:36;;;;;;;0.00;0.00;;;;;;;-0.36;58.11;99468.63;4379427;32;32903;-86
2024/01/14 03:34:04;;;;;;;1.87;1.77;;;;;;;-0.41;58.18;99467.81;4395311;32;33677;-86
2024/01/14 03:36:31;;;;;;;0.70;0.70;;;;;;;-0.30;58.06;99461.66;4396414;32;35183;-87
2024/01/14 03:38:59;;;;;;;1.35;1.25;;;;;;;-0.31;57.82;99454.75;4400027;32;33969;-86
2024/01/14 03:41:27;;;;;;;0.68;0.35;;;;;;;-0.26;57.82;99457.34;4370341;32;35438;-87
2024/01/14 03:43:54;;;;;;;3.97;2.03;;;;;;;-0.48;57.63;99450.53;4393914;32;33965;-86
2024/01/14 03:46:22;;;;;;;0.13;0.13;;;;;;;-0.44;57.57;99447.06;4411842;32;34500;-86
2024/01/14 03:48:50;;;;;;;1.53;1.43;;;;;;;-0.54;57.64;99454.00;4389611;32;128749;-86
2024/01/14 03:51:18;;;;;;;1.52;0.93;;;;;;;-0.42;57.48;99445.34;4395800;32;33283;-86
2024/01/14 03:53:46;;;;;;;0.93;0.93;;;;;;;-0.50;57.43;99445.34;4394285;32;33393;-86
2024/01/14 03:56:14;;;;;;;13.43;0.75;;;;;;;-0.46;57.42;99454.84;4364399;32;34221;-87
2024/01/14 03:58:41;;;;;;;0.75;0.75;;;;;;;-0.82;58.29;99456.72;4390355;32;31895;-87
2024/01/14 04:01:18;;;;;;;1.45;0.70;;;;;;;-0.84;58.49;99453.28;4393329;32;33505;-86
2024/01/14 04:03:46;;;;;;;0.00;0.00;;;;;;;-0.81;58.05;99458.47;4395748;32;33511;-86
2024/01/14 04:06:14;;;;;;;1.17;1.12;;;;;;;-0.62;58.04;99442.81;4396007;32;34091;-87
2024/01/14 04:08:42;;;;;;;0.62;0.62;;;;;;;-0.62;58.00;99445.41;4393377;32;33295;-87
2024/01/14 04:11:10;;;;;;;3.03;0.98;;;;;;;-0.81;57.75;99442.91;4367256;32;34049;-86
2024/01/14 04:13:38;;;;;;;0.20;0.20;;;;;;;-0.79;57.86;99437.72;4378462;32;31249;-87
2024/01/14 04:16:07;;;;;;;0.10;0.10;;;;;;;-0.99;59.14;99442.09;4381397;32;33534;-85
2024/01/14 04:18:35;;;;;;;0.37;0.37;;;;;;;-1.07;60.05;99431.75;4394567;32;34354;-85
2024/01/14 04:21:03;;;;;;;0.10;0.10;;;;;;;-0.81;58.75;99424.75;4396417;32;33869;-85
2024/01/14 04:23:31;;;;;;;2.10;0.85;;;;;;;-0.83;58.32;99423.88;4390731;32;32176;-85
2024/01/14 04:26:04;;;;;;;0.88;0.88;;;;;;;-0.95;59.07;99434.31;4399951;32;34874;-84
2024/01/14 04:28:31;;;;;;;0.55;0.47;;;;;;;-0.80;59.11;99436.00;4398978;32;33761;-85
2024/01/14 04:30:59;;;;;;;0.65;0.65;;;;;;;-0.77;59.29;99442.00;4385879;32;33852;-85
2024/01/14 04:33:27;;;;;;;0.00;0.00;;;;;;;-0.82;59.10;99446.34;4397957;32;33812;-85
2024/01/14 04:35:55;;;;;;;0.77;0.77;;;;;;;-0.86;59.60;99442.03;4398036;32;34663;-85
2024/01/14 04:38:23;;;;;;;0.90;0.90;;;;;;;-0.87;59.50;99432.53;4387616;32;33105;-85
2024/01/14 04:40:51;;;;;;;0.88;0.88;;;;;;;-0.82;60.22;99429.94;4387037;32;33277;-85
2024/01/14 04:43:18;;;;;;;0.00;0.00;;;;;;;-0.68;60.14;99432.47;4404303;32;33612;-85
2024/01/14 04:45:46;;;;;;;0.10;0.10;;;;;;;-0.52;59.80;99434.12;4400690;32;33731;-85
2024/01/14 04:48:13;;;;;;;0.00;0.00;;;;;;;-0.57;60.08;99430.69;4400373;32;32694;-88
2024/01/14 04:50:41;;;;;;;0.15;0.15;;;;;;;-0.49;60.48;99426.31;4395852;32;33326;-89
2024/01/14 04:53:10;;;;;;;0.45;0.45;;;;;;;-0.63;60.41;99422.94;4399816;32;33874;-88
2024/01/14 04:55:37;;;;;;;1.55;1.45;;;;;;;-0.41;59.79;99427.16;4400292;32;32858;-88
2024/01/14 04:58:05;;;;;;;1.55;0.85;;;;;;;-0.49;60.05;99428.91;4398169;32;31943;-88
2024/01/14 05:00:33;;;;;;;0.20;0.20;;;;;;;-0.45;60.63;99432.38;4384681;32;32735;-88
2024/01/14 05:03:02;;;;;;;0.15;0.15;;;;;;;-0.30;59.52;99414.97;4390403;32;34160;-88
2024/01/14 05:05:29;;;;;;;2.40;1.48;;;;;;;-0.24;60.22;99424.44;4398425;32;34046;-87
2024/01/14 05:07:57;;;;;;;0.85;0.85;;;;;;;-0.20;59.93;99420.97;4399055;32;33358;-88
2024/01/14 05:10:25;;;;;;;0.20;0.20;;;;;;;-0.35;60.53;99414.13;4403197;32;33509;-88
2024/01/14 05:12:52;;;;;;;1.33;1.30;;;;;;;-0.11;60.64;99409.66;4393002;32;33388;-88
2024/01/14 05:15:20;;;;;;;0.20;0.20;;;;;;;-0.14;60.18;99407.09;4393492;32;34486;-89
2024/01/14 05:17:50;;;;;;;0.10;0.10;;;;;;;0.14;59.42;99416.44;4397326;32;33103;-88
2024/01/14 05:20:17;;;;;;;0.10;0.10;;;;;;;0.18;59.32;99425.88;4401131;32;34368;-88
2024/01/14 05:22:45;;;;;;;0.20;0.20;;;;;;;0.14;58.97;99437.19;4404273;32;33268;-86
2024/01/14 05:25:13;;;;;;;0.65;0.65;;;;;;;0.31;58.21;99433.59;4389984;32;32836;-86
2024/01/14 05:27:40;;;;;;;0.75;0.75;;;;;;;0.38;57.86;99427.47;4391248;32;31988;-84
2024/01/14 05:30:09;;;;;;;0.00;0.00;;;;;;;0.19;58.75;99432.81;4399898;32;33851;-84
2024/01/14 05:32:36;;;;;;;2.00;1.90;;;;;;;0.36;58.16;99429.22;4386352;32;34629;-84
2024/01/14 05:35:04;;;;;;;1.02;0.95;;;;;;;0.61;57.33;99422.91;4398090;32;33605;-84
2024/01/14 05:37:32;;;;;;;0.22;0.22;;;;;;;0.38;57.54;99430.06;4399173;32;33704;-86
2024/01/14 05:40:00;;;;;;;0.73;0.60;;;;;;;0.32;57.64;99414.53;4397621;32;34008;-86
2024/01/14 05:42:27;;;;;;;1.48;1.37;;;;;;;0.10;58.23;99404.34;4399890;32;34705;-86
2024/01/14 05:44:56;;;;;;;0.00;0.00;;;;;;;0.39;57.11;99408.44;4389906;32;33846;-88
2024/01/14 05:47:24;;;;;;;0.82;0.82;;;;;;;0.30;57.43;99418.88;4390563;32;34321;-88
2024/01/14 05:49:51;;;;;;;0.22;0.22;;;;;;;0.37;57.24;99410.16;4360775;32;33361;-88
2024/01/14 05:52:20;;;;;;;5.78;0.90;;;;;;;0.32;57.33;99415.38;4370315;32;33398;-88
2024/01/14 05:54:47;;;;;;;1.25;1.10;;;;;;;0.33;57.29;99421.44;4368892;32;32781;-86
2024/01/14 05:57:15;;;;;;;2.60;2.40;;;;;;;0.27;57.12;99417.16;4372457;32;32032;-87
2024/01/14 05:59:43;;;;;;;1.42;1.27;;;;;;;0.12;56.85;99412.09;4373701;32;33842;-85
2024/01/14 06:02:11;;;;;;;0.47;0.47;;;;;;;0.32;56.36;99407.59;4372107;32;33504;-85
2024/01/14 06:04:40;;;;;;;1.42;1.33;;;;;;;0.19;56.74;99414.66;4388819;32;34440;-85
2024/01/14 06:07:08;;;;;;;0.85;0.85;;;;;;;0.03;57.25;99413.03;4372765;32;34383;-85
2024/01/14 06:09:36;;;;;;;0.17;0.17;;;;;;;0.08;57.11;99421.63;4383900;32;34713;-86
2024/01/14 06:12:04;;;;;;;1.52;1.42;;;;;;;-0.02;57.48;99427.78;4385903;32;33844;-86
2024/01/14 06:14:32;;;;;;;7.22;1.05;;;;;;;0.06;56.73;99427.72;4382317;32;33270;-86
2024/01/14 06:17:00;;;;;;;3.97;2.00;;;;;;;0.02;56.76;99437.28;4381523;32;32978;-85
2024/01/14 06:19:28;;;;;;;2.92;2.25;;;;;;;-0.04;56.82;99429.53;4368880;32;35323;-86
2024/01/14 06:21:56;;;;;;;0.93;0.93;;;;;;;0.04;57.05;99430.31;4382901;32;33594;-85
2024/01/14 06:24:24;;;;;;;0.00;0.00;;;;;;;-0.14;57.15;99430.44;4381288;32;33059;-86
2024/01/14 06:26:52;;;;;;;1.98;1.25;;;;;;;-0.12;57.28;99428.72;4389586;32;33755;-85
2024/01/14 06:29:20;;;;;;;0.93;0.93;;;;;;;-0.08;57.09;99423.50;4385997;32;33872;-85
2024/01/14 06:31:48;;;;;;;6.97;1.75;;;;;;;-0.16;57.28;99417.47;4389685;32;33197;-84
2024/01/14 06:34:16;;;;;;;1.12;1.12;;;;;;;-0.24;57.64;99411.47;4388782;32;34383;-85
2024/01/14 06:36:44;;;;;;;0.77;0.77;;;;;;;-0.04;57.15;99416.56;4382941;32;32154;-85
2024/01/14 06:39:11;;;;;;;0.47;0.25;;;;;;;-0.11;57.38;99417.44;4387716;32;36182;-85
2024/01/14 06:41:40;;;;;;;0.30;0.30;;;;;;;-0.11;57.47;99430.44;4373971;32;34660;-85
2024/01/14 06:44:07;;;;;;;0.62;0.62;;;;;;;-0.12;57.04;99437.34;4386666;32;33427;-85
2024/01/14 06:46:41;;;;;;;0.85;0.85;;;;;;;-0.23;57.38;99435.72;4382809;32;33950;-85
2024/01/14 06:49:09;;;;;;;0.93;0.90;;;;;;;-0.26;57.45;99427.06;4403016;32;33449;-85
2024/01/14 06:51:44;;;;;;;2.03;1.92;;;;;;;-0.10;56.61;99427.81;4377342;32;32948;-84
2024/01/14 06:54:12;;;;;;;0.57;0.57;;;;;;;-0.14;56.54;99420.94;4402193;32;34150;-84
2024/01/14 06:56:44;;;;;;;0.85;0.85;;;;;;;-0.20;57.02;99420.97;4399935;32;33963;-84
2024/01/14 06:59:21;;;;;;;0.20;0.20;;;;;;;-0.26;57.16;99413.22;4388727;32;32604;-84
2024/01/14 07:01:49;;;;;;;1.90;1.85;;;;;;;-0.54;57.94;99409.94;4402349;32;34032;-84
2024/01/14 07:04:17;;;;;;;0.00;0.00;;;;;;;-0.38;58.04;99421.06;4402528;32;33534;-84
2024/01/14 07:06:45;;;;;;;0.20;0.20;;;;;;;-0.40;58.00;99423.69;4403235;32;33997;-85
2024/01/14 07:09:13;;;;;;;0.50;0.32;;;;;;;-0.35;58.64;99421.94;4394386;32;32451;-85
2024/01/14 07:11:41;;;;;;;3.35;2.50;;;;;;;-0.14;58.00;99430.44;4405227;32;33998;-85
2024/01/14 07:14:09;;;;;;;1.37;1.27;;;;;;;-0.09;57.66;99433.91;4389562;32;32042;-84
2024/01/14 07:16:38;;;;;;;1.37;1.27;;;;;;;-0.36;59.43;99421.94;4389422;32;32780;-87
2024/01/14 07:19:06;;;;;;;0.10;0.10;;;;;;;-0.13;59.31;99421.81;4391564;32;34604;-87
2024/01/14 07:21:34;;;;;;;0.55;0.55;;;;;;;-0.10;59.12;99416.56;4378879;32;32686;-87
2024/01/14 07:24:03;;;;;;;1.75;1.65;;;;;;;-0.17;59.59;99415.78;4392761;32;33818;-86
2024/01/14 07:26:30;;;;;;;2.95;0.95;;;;;;;0.08;59.83;99421.63;4402002;32;32192;-86
2024/01/14 07:28:58;;;;;;;8.82;3.42;;;;;;;0.05;59.92;99434.66;4381876;32;32865;-86
2024/01/14 07:31:27;;;;;;;0.40;0.40;;;;;;;0.12;59.50;99438.91;4391286;32;34034;-86
2024/01/14 07:33:55;;;;;;;1.67;1.58;;;;;;;0.27;nan;99431.88;4399823;32;34080;-87
2024/01/14 07:36:24;;;;;;;3.60;3.08;;;;;;;0.35;59.30;99430.97;4389112;32;32672;-87
2024/01/14 07:38:53;;;;;;;2.58;2.37;;;;;;;0.42;58.44;99419.63;4390916;32;32510;-88
2024/01/14 07:41:21;;;;;;;0.93;0.93;;;;;;;0.59;58.36;99418.62;4392097;32;32098;-87
2024/01/14 07:43:49;;;;;;;0.82;0.82;;;;;;;0.37;58.77;99417.94;4400213;32;34282;-87
2024/01/14 07:46:17;;;;;;;2.22;1.15;;;;;;;0.53;58.58;99422.16;4390910;32;32954;-87
2024/01/14 07:48:46;;;;;;;2.08;1.27;;;;;;;0.84;57.75;99429.63;4403635;32;34651;-88
2024/01/14 07:51:14;;;;;;;1.08;1.08;;;;;;;0.85;57.82;99431.34;4404746;32;33219;-88
2024/01/14 07:53:42;;;;;;;2.53;1.02;;;;;;;0.74;57.73;99429.72;4389983;32;33191;-86
2024/01/14 07:56:10;;;;;;;0.85;0.85;;;;;;;0.67;57.76;99428.06;4400653;32;32149;-87
2024/01/14 07:58:37;;;;;;;0.98;0.98;;;;;;;0.77;57.83;99427.09;4401896;32;34572;-87
2024/01/14 08:01:06;;;;;;;0.90;0.90;;;;;;;0.88;57.46;99424.38;4403452;32;33120;-87
2024/01/14 08:03:35;;;;;;;1.52;1.52;;;;;;;0.90;57.19;99424.34;4399524;32;32904;-87
2024/01/14 08:06:04;;;;;;;1.90;1.80;;;;;;;0.95;57.36;99430.37;4393740;32;34363;-87
2024/01/14 08:08:32;;;;;;;0.43;0.43;;;;;;;1.27;56.73;99424.81;4412765;32;32105;-87
2024/01/14 08:11:00;;;;;;;1.30;1.23;;;;;;;1.13;56.63;99422.37;4399443;32;33792;-87
2024/01/14 08:13:28;;;;;;;0.60;0.60;;;;;;;0.93;57.00;99426.94;4403786;32;34179;-87
2024/01/14 08:15:56;;;;;;;1.30;1.23;;;;;;;0.97;57.30;99436.44;4400543;32;33528;-87
2024/01/14 08:18:30;;;;;;;0.82;0.82;;;;;;;0.99;56.97;99429.47;4396194;32;34606;-86
2024/01/14 08:20:59;;;;;;;0.77;0.73;;;;;;;1.13;56.74;99421.50;4391386;32;33880;-84
2024/01/14 08:23:32;;;;;;;0.10;0.10;;;;;;;1.08;57.08;99418.97;4403342;32;34441;-87
2024/01/14 08:26:01;;;;;;;2.17;1.85;;;;;;;1.09;57.45;99412.88;4392068;32;33940;-86
2024/01/14 08:28:31;;;;;;;1.15;1.15;;;;;;;1.17;57.35;99418.00;4390910;32;32249;-86
2024/01/14 08:30:58;;;;;;;1.48;1.35;;;;;;;1.32;57.35;99420.41;4399345;32;33585;-86
2024/01/14 08:33:28;;;;;;;7.00;2.10;;;;;;;1.28;57.12;99424.81;4399454;32;34013;-86
2024/01/14 08:35:56;;;;;;;3.00;2.83;;;;;;;1.51;56.70;99426.25;4395306;32;32240;-86
2024/01/14 08:38:26;;;;;;;1.12;1.10;;;;;;;1.73;56.18;99422.47;4395607;32;32225;-85
2024/01/14 08:40:54;;;;;;;0.65;0.60;;;;;;;1.35;57.23;99422.13;4403264;32;30485;-85
2024/01/14 08:43:22;;;;;;;1.35;1.25;;;;;;;1.58;57.05;99427.91;4403925;32;32826;-85
2024/01/14 08:45:49;;;;;;;0.43;0.43;;;;;;;1.65;57.18;99426.06;4399122;32;33823;-85
2024/01/14 08:48:17;;;;;;;0.95;0.95;;;;;;;1.55;57.44;99430.53;4405053;32;33144;-85
2024/01/14 08:50:46;;;;;;;0.75;0.75;;;;;;;2.09;56.26;99427.16;4394520;32;32336;-85
2024/01/14 08:53:13;;;;;;;2.22;2.12;;;;;;;2.13;56.35;99428.81;4396387;32;35342;-86
2024/01/14 08:55:41;;;;;;;2.17;2.08;;;;;;;2.12;56.30;99425.38;4404748;32;32525;-86
2024/01/14 08:58:09;;;;;;;0.15;0.15;;;;;;;2.31;55.91;99424.19;4406542;32;32169;-86
2024/01/14 09:00:37;;;;;;;2.17;1.67;;;;;;;2.44;55.63;99419.66;4402625;32;33505;-86
2024/01/14 09:03:05;;;;;;;1.48;1.37;;;;;;;1.98;56.31;99432.53;4392278;32;33393;-86
2024/01/14 09:05:33;;;;;;;0.20;0.20;;;;;;;2.49;54.87;99427.38;4400919;32;32878;-90
2024/01/14 09:08:01;;;;;;;3.03;2.47;;;;;;;2.56;54.63;99434.19;4382312;32;34304;-88
2024/01/14 09:10:28;;;;;;;0.25;0.25;;;;;;;2.14;55.70;99439.25;4391441;32;32903;-91
2024/01/14 09:12:56;;;;;;;1.02;1.02;;;;;;;2.52;55.34;99435.16;4407608;32;32682;-90
2024/01/14 09:15:24;;;;;;;0.57;0.30;;;;;;;2.87;54.37;99434.53;4407168;32;32314;-90
2024/01/14 09:17:52;;;;;;;1.08;1.02;;;;;;;2.99;53.92;99430.81;4407615;32;32512;-90
2024/01/14 09:20:20;;;;;;;4.05;3.03;;;;;;;3.12;53.76;99424.47;4407817;32;32895;-90
2024/01/14 09:22:47;;;;;;;0.25;0.25;;;;;;;3.13;53.94;99420.97;4405047;32;35121;-90
2024/01/14 09:25:15;;;;;;;5.03;0.88;;;;;;;3.59;52.98;99420.03;4404732;32;33045;-90
2024/01/14 09:27:43;;;;;;;2.15;2.05;;;;;;;3.56;52.13;99430.53;4420301;32;33983;-90
2024/01/14 09:30:12;;;;;;;0.30;0.30;;;;;;;3.40;52.67;99426.53;4395341;32;32990;-90
2024/01/14 09:32:40;;;;;;;1.08;1.02;;;;;;;3.28;52.98;99423.31;4401224;32;33254;-91
2024/01/14 09:35:08;;;;;;;1.75;1.65;;;;;;;3.53;52.38;99420.19;4395937;32;31980;-90
2024/01/14 09:37:36;;;;;;;1.73;1.67;;;;;;;3.20;53.28;99417.38;4388676;32;32969;-91
2024/01/14 09:40:06;;;;;;;2.42;2.28;;;;;;;3.18;53.72;99413.06;4407645;32;32877;-90
2024/01/14 09:42:35;;;;;;;0.45;0.45;;;;;;;3.56;53.00;99412.25;4395993;32;33455;-90
2024/01/14 09:45:05;;;;;;;0.77;0.77;;;;;;;3.49;53.71;99411.56;4394785;32;33361;-90
2024/01/14 09:47:35;;;;;;;2.60;1.92;;;;;;;4.10;52.33;99404.09;4393239;32;33582;-90
2024/01/14 09:50:03;;;;;;;3.53;2.47;;;;;;;4.07;51.42;99398.94;4386473;32;33341;-91
2024/01/14 09:52:32;;;;;;;0.75;0.55;;;;;;;4.13;51.40;99388.34;4374005;32;34179;-90
2024/01/14 09:55:03;;;;;;;0.83;0.77;;;;;;;4.41;51.58;99383.28;4384081;32;32961;-91
2024/01/14 09:57:34;;;;;;;0.77;0.77;;;;;;;4.39;51.04;99371.16;4358601;32;32952;-91
2024/01/14 10:00:04;;;;;;;1.90;1.77;;;;;;;4.04;51.50;99376.37;4396477;32;32662;-91
2024/01/14 10:02:36;;;;;;;0.62;0.62;;;;;;;4.37;50.67;99379.91;4398319;32;33518;-94
2024/01/14 10:05:05;;;;;;;1.90;1.80;;;;;;;4.98;49.90;99363.47;4405154;32;32820;-91
2024/01/14 10:07:35;;;;;;;0.45;0.45;;;;;;;4.94;49.36;99372.28;4392514;32;32440;-92
2024/01/14 10:10:06;;;;;;;1.50;1.40;;;;;;;5.26;48.94;99359.16;4405344;32;33990;-92
2024/01/14 10:12:35;;;;;;;0.37;0.37;;;;;;;5.51;48.00;99364.56;4400349;32;33438;-91
2024/01/14 10:15:04;;;;;;;0.30;0.30;;;;;;;5.73;47.62;99346.41;4381464;32;32196;-90
2024/01/14 10:17:33;;;;;;;1.48;1.00;;;;;;;5.58;48.06;99349.50;4371724;32;32497;-91
2024/01/14 10:20:02;;;;;;;3.42;3.12;;;;;;;5.46;48.15;99353.34;4400418;32;32967;-91
2024/01/14 10:22:30;;;;;;;3.22;1.48;;;;;;;5.74;47.19;99355.97;4375248;32;32870;-92
2024/01/14 10:24:58;;;;;;;0.62;0.62;;;;;;;5.73;47.49;99356.88;4377056;32;32941;-92
2024/01/14 10:27:26;;;;;;;2.40;2.20;;;;;;;5.73;47.04;99351.63;4390021;32;33972;-91
2024/01/14 10:30:09;;;;;;;0.32;0.32;;;;;;;5.60;46.78;99355.53;4398671;32;33275;-91
2024/01/14 10:32:38;;;;;;;1.10;1.08;;;;;;;5.73;46.42;99351.63;4393250;32;34082;-92
2024/01/14 10:35:27;;;;;;;1.65;1.55;;;;;;;5.34;47.24;99354.56;4379335;32;32949;-92
2024/01/14 10:37:56;;;;;;;0.70;0.70;;;;;;;4.91;47.98;99348.84;4398200;32;33808;-91
2024/01/14 10:40:24;;;;;;;1.35;1.27;;;;;;;5.26;48.49;99345.22;4384946;32;33860;-91
2024/01/14 10:42:52;;;;;;;2.25;2.10;;;;;;;5.67;46.59;99350.97;4362817;32;33690;-91
2024/01/14 10:45:20;;;;;;;0.90;0.90;;;;;;;5.71;46.07;99342.97;4373748;32;34242;-91
2024/01/14 10:47:55;;;;;;;1.05;0.57;;;;;;;5.94;46.14;99333.59;4384643;32;32408;-91
2024/01/14 10:50:26;;;;;;;0.77;0.77;;;;;;;6.07;45.79;99329.63;4397201;32;33028;-92
2024/01/14 10:53:18;;;;;;;1.00;0.88;;;;;;;6.00;45.89;99333.38;4380018;32;32733;-90
2024/01/14 10:55:51;;;;;;;4.05;3.67;;;;;;;5.89;45.91;99324.06;4380136;32;33647;-90
2024/01/14 10:58:25;;;;;;;1.05;1.05;;;;;;;5.52;46.33;99326.12;4384389;32;32158;-89
2024/01/14 11:00:58;;;;;;;0.37;0.35;;;;;;;5.69;46.46;99318.59;4383521;32;33469;-90
2024/01/14 11:03:29;;;;;;;6.00;3.92;;;;;;;6.15;45.82;99317.13;4397109;32;33960;-90
2024/01/14 11:05:58;;;;;;;;;;;;;;;6.64;44.87;99307.56;4370506;32;33050;-89
2024/01/14 11:08:26;;;;;;;0.68;0.68;;;;;;;6.41;44.80;99298.75;4385030;32;32625;-90
2024/01/14 11:10:55;;;;;;;2.55;1.17;;;;;;;6.13;45.37;99308.47;4380416;32;30687;-90
2024/01/14 11:13:52;;;;;;;1.98;0.70;;;;;;;6.30;45.01;99295.62;4379564;32;32624;-90
2024/01/14 11:16:37;;;;;;;5.72;3.50;;;;;;;6.50;45.17;99301.94;4385819;32;32140;-89
2024/01/14 11:19:11;;;;;;;0.47;0.47;;;;;;;6.88;43.75;99295.34;4395179;32;34180;-89
2024/01/14 11:22:02;;;;;;;0.20;0.20;;;;;;;6.40;44.46;99297.03;4392270;32;33353;-89
2024/01/14 11:24:50;;;;;;;0.37;0.37;;;;;;;6.33;44.95;99294.69;4382827;32;34100;-88
2024/01/14 11:27:18;;;;;;;0.85;0.68;;;;;;;6.33;45.34;99295.53;4385383;32;30442;-89
2024/01/14 11:29:52;;;;;;;1.20;1.08;;;;;;;6.62;44.70;99285.78;4384502;32;34624;-89
2024/01/14 11:32:20;;;;;;;1.12;1.08;;;;;;;6.16;45.21;99290.00;4375132;32;33073;-89
2024/01/14 11:34:54;;;;;;;0.57;0.57;;;;;;;5.87;46.14;99285.69;4382153;32;34157;-88
2024/01/14 11:37:29;;;;;;;1.62;1.52;;;;;;;6.18;46.03;99285.59;4372866;32;31940;-88
2024/01/14 11:40:11;;;;;;;2.40;0.55;;;;;;;5.84;45.96;99281.44;4372934;32;36038;-89
2024/01/14 11:42:49;;;;;;;0.77;0.77;;;;;;;5.43;47.31;99290.59;4385089;32;33667;-89
2024/01/14 11:45:23;;;;;;;2.90;2.28;;;;;;;5.95;46.42;99283.72;4384010;32;33073;-89